Meteo Giornale » Osservazioni meteo Italia » Gioia Del Colle

ore: 04:55 - Osservazioni Meteo Gioia Del Colle
Lat. 40° 46' N Lon. 16° 56' E Alt. 345 metri s.l.m.

molto_nuvoloso Europe/Rome

12 °C

Molto Nuvoloso

Temp. 24 Ore

11 °C

16 °C

Sud/Sud-Est

33.3 Km/h

Dew point 12 °C

Umidità 100 %

Visibilità  6 Km

Il sole sorge alle ore 05:54

Il sole tramonta alle ore 19:44

Data e Ora Cielo e Fenomeni T °C DP °C Um. % Pres. hPa Vis. km Vento km/h
Oggi h: 04:55 molto_nuvoloso Molto Nuvoloso 12 12 100 1015 6 S/SE 33.3
Oggi h: 03:55 molto_nuvoloso Molto Nuvoloso 12 12 100 1015 6 S/SE 25.9
Oggi h: 02:55 molto_nuvoloso Molto Nuvoloso 12 11 93 1016 7 S/SE 27.8
Oggi h: 01:55 nuvoloso Nuvoloso 12 11 93 1016 8 S/SE 25.9
Oggi h: 00:55 nuvoloso Nuvoloso 12 11 93 1016 8 S/SE 25.9
Ieri h: 22:55 sereno Sereno 11 11 100 1016 10 S/SE 25.9
Ieri h: 20:55 sereno Sereno 12 11 93 1016 10 S/SE 29.6
Ieri h: 19:55 sereno Sereno 12 10 87 1016 10 S/SE 31.5
Ieri h: 18:55 poco_nuvoloso Poco Nuvoloso 13 9 76 1016 10 S/SE 29.6
Ieri h: 17:55 poco_nuvoloso Poco Nuvoloso 14 8 67 1016 10 S/SE 35.2
Ieri h: 16:55 poco_nuvoloso Poco Nuvoloso 15 8 62 1016 10 S/SE 37
Ieri h: 15:55 poco_nuvoloso Poco Nuvoloso 16 7 55 1017 10 S/SE 37
Ieri h: 14:55 poco_nuvoloso Poco Nuvoloso 16 6 51 1017 10 S/SE 40.7
Ieri h: 13:55 poco_nuvoloso Poco Nuvoloso 16 6 51 1017 10 S/SE 42.6
Ieri h: 12:55 nuvoloso Nuvoloso 16 7 55 1017 10 S/SE 40.7
Ieri h: 11:55 nuvoloso Nuvoloso 16 7 55 1018 10 S 38.8
Ieri h: 10:55 nuvoloso Nuvoloso 15 8 62 1018 10 S 38.8
Ieri h: 09:55 nuvoloso Nuvoloso 14 9 71 1018 10 S 35.2
Ieri h: 08:55 nuvoloso Nuvoloso 13 10 81 1018 8 S/SE 29.6
Ieri h: 07:55 nuvoloso Nuvoloso 12 12 100 1018 6 S/SE 27.8
Ieri h: 06:55 foschia Foschia 12 12 100 1017 5 S/SE 24